createdAt,value
2023-08-11T00:00:44.940Z,99.62
2023-08-11T00:06:10.584Z,99.82
2023-08-11T00:11:16.245Z,100.00
2023-08-11T00:16:21.863Z,100.00
2023-08-11T00:21:27.992Z,100.00
2023-08-11T00:26:33.764Z,100.00
2023-08-11T00:31:39.549Z,100.00
2023-08-11T00:36:45.763Z,100.00
2023-08-11T00:41:51.423Z,100.00
2023-08-11T00:46:58.124Z,100.00
2023-08-11T00:52:05.783Z,100.00
2023-08-11T00:57:11.777Z,100.00
2023-08-11T01:02:18.100Z,100.00
2023-08-11T01:07:35.201Z,100.00
2023-08-11T01:12:47.223Z,100.00
2023-08-11T01:17:54.012Z,100.00
2023-08-11T01:23:03.161Z,100.00
2023-08-11T01:28:08.989Z,100.00
2023-08-11T01:33:14.813Z,100.00
2023-08-11T01:38:20.538Z,100.00
2023-08-11T01:43:28.035Z,100.00
2023-08-11T01:48:36.306Z,100.00
2023-08-11T01:53:42.124Z,100.00
2023-08-11T01:58:49.284Z,100.00
2023-08-11T02:03:54.956Z,100.00
2023-08-11T02:09:01.772Z,100.00
2023-08-11T02:14:07.847Z,100.00
2023-08-11T02:19:13.709Z,100.00
2023-08-11T02:24:19.631Z,100.00
2023-08-11T02:29:25.478Z,100.00
2023-08-11T02:34:31.931Z,100.00
2023-08-11T02:39:40.365Z,100.00
2023-08-11T02:44:46.390Z,100.00
2023-08-11T02:49:52.140Z,100.00
2023-08-11T02:54:58.105Z,100.00
2023-08-11T03:00:18.617Z,100.00
2023-08-11T03:05:24.476Z,100.00
2023-08-11T03:10:39.921Z,100.00
2023-08-11T03:16:02.922Z,100.00
2023-08-11T03:21:19.375Z,100.00
2023-08-11T03:26:26.967Z,100.00
2023-08-11T03:31:34.446Z,100.00
2023-08-11T03:36:40.524Z,100.00
2023-08-11T03:41:46.586Z,100.00
2023-08-11T03:46:52.784Z,100.00
2023-08-11T03:51:58.649Z,100.00
2023-08-11T03:57:04.697Z,100.00
2023-08-11T04:02:11.264Z,100.00
2023-08-11T04:07:18.106Z,100.00
2023-08-11T04:12:26.987Z,100.00
2023-08-11T04:17:37.984Z,100.00
2023-08-11T04:22:44.236Z,100.00
2023-08-11T04:27:49.914Z,100.00
2023-08-11T04:32:58.387Z,100.00
2023-08-11T04:38:05.393Z,100.00
2023-08-11T04:43:12.358Z,100.00
2023-08-11T04:49:05.394Z,100.00
2023-08-11T04:54:18.725Z,99.90
2023-08-11T04:59:24.392Z,89.73
2023-08-11T05:04:30.240Z,77.65
2023-08-11T05:09:37.037Z,68.46
2023-08-11T05:14:44.084Z,61.50
2023-08-11T05:19:50.634Z,55.24
2023-08-11T05:24:58.399Z,50.53
2023-08-11T05:30:05.140Z,46.92
2023-08-11T05:35:14.627Z,43.72
2023-08-11T05:40:20.409Z,41.41
2023-08-11T05:45:26.512Z,39.70
2023-08-11T05:50:32.364Z,37.71
2023-08-11T05:55:38.543Z,35.79
2023-08-11T06:00:44.328Z,34.68
2023-08-11T06:05:50.299Z,33.08
2023-08-11T06:10:56.351Z,31.86
2023-08-11T06:16:07.123Z,31.12
2023-08-11T06:21:20.031Z,29.95
2023-08-11T06:26:26.309Z,29.38
2023-08-11T06:31:33.362Z,28.96
2023-08-11T06:36:37.677Z,28.10
2023-08-11T06:41:43.680Z,27.01
2023-08-11T06:46:49.933Z,26.44
2023-08-11T06:51:55.543Z,25.32
2023-08-11T06:57:03.040Z,25.18
2023-08-11T07:02:09.383Z,24.59
2023-08-11T07:07:15.185Z,23.38
2023-08-11T07:12:20.851Z,23.15
2023-08-11T07:17:25.470Z,22.66
2023-08-11T07:22:31.072Z,22.02
2023-08-11T07:27:35.544Z,21.68
2023-08-11T07:32:42.945Z,21.15
2023-08-11T07:37:48.703Z,21.56
2023-08-11T07:42:54.525Z,20.89
2023-08-11T07:48:00.562Z,20.26
2023-08-11T07:53:06.895Z,20.31
2023-08-11T07:58:12.418Z,20.06
2023-08-11T08:03:18.710Z,20.09
2023-08-11T08:08:25.039Z,19.47
2023-08-11T08:13:31.081Z,19.28
2023-08-11T08:18:36.699Z,18.77
2023-08-11T08:23:42.342Z,19.00
2023-08-11T08:28:49.057Z,19.24
2023-08-11T08:33:55.561Z,18.87
2023-08-11T08:39:01.290Z,18.79
2023-08-11T08:44:08.274Z,18.06
2023-08-11T08:49:21.318Z,18.87
2023-08-11T08:54:27.621Z,18.55
2023-08-11T08:59:33.644Z,19.13
2023-08-11T09:04:40.753Z,18.00
2023-08-11T09:09:46.708Z,17.84
2023-08-11T09:14:52.315Z,19.63
2023-08-11T09:19:57.939Z,20.02
2023-08-11T09:25:05.085Z,19.17
2023-08-11T09:30:13.309Z,21.10
2023-08-11T09:35:25.566Z,19.87
2023-08-11T09:40:34.187Z,20.69
2023-08-11T09:45:40.255Z,20.43
2023-08-11T09:50:47.031Z,20.15
2023-08-11T09:55:55.555Z,19.56
2023-08-11T10:01:10.832Z,18.71
2023-08-11T10:06:31.014Z,19.48
2023-08-11T10:11:38.484Z,19.92
2023-08-11T10:16:45.397Z,20.01
2023-08-11T10:21:51.207Z,19.62
2023-08-11T10:26:56.883Z,20.38
2023-08-11T10:32:03.335Z,22.01
2023-08-11T10:37:09.869Z,22.42
2023-08-11T10:42:15.793Z,22.17
2023-08-11T10:47:22.064Z,21.85
2023-08-11T10:52:30.942Z,21.64
2023-08-11T10:57:37.797Z,22.11
2023-08-11T11:02:43.895Z,21.03
2023-08-11T11:07:54.470Z,21.67
2023-08-11T11:13:00.314Z,20.47
2023-08-11T11:18:07.478Z,22.03
2023-08-11T11:23:13.044Z,20.00
2023-08-11T11:28:19.492Z,21.20
2023-08-11T11:33:25.506Z,22.11
2023-08-11T11:38:32.148Z,23.35
2023-08-11T11:43:41.102Z,22.66
2023-08-11T11:48:51.368Z,23.25
2023-08-11T11:54:02.153Z,23.18
2023-08-11T11:59:08.081Z,23.64
2023-08-11T12:04:16.700Z,25.33
2023-08-11T12:09:23.845Z,25.58
2023-08-11T12:14:31.210Z,25.41
2023-08-11T12:19:37.426Z,23.76
2023-08-11T12:24:43.136Z,25.94
2023-08-11T12:29:49.373Z,26.44
2023-08-11T12:34:54.930Z,25.88
2023-08-11T12:40:00.575Z,26.76
2023-08-11T12:45:08.441Z,26.02
2023-08-11T12:50:14.401Z,25.83
2023-08-11T12:55:20.098Z,26.23
2023-08-11T13:00:26.128Z,27.72
2023-08-11T13:05:33.057Z,28.06
2023-08-11T13:10:39.574Z,27.17
2023-08-11T13:15:46.270Z,27.41
2023-08-11T13:20:52.534Z,28.28
2023-08-11T13:25:58.095Z,27.68
2023-08-11T13:31:04.039Z,29.06
2023-08-11T13:36:11.126Z,29.08
2023-08-11T13:41:16.709Z,28.20
2023-08-11T13:46:22.447Z,28.92
2023-08-11T13:51:28.120Z,28.83
2023-08-11T13:56:35.437Z,29.77
2023-08-11T14:01:41.099Z,31.16
2023-08-11T14:06:46.957Z,31.31
2023-08-11T14:11:52.657Z,31.11
2023-08-11T14:16:58.427Z,31.59
2023-08-11T14:22:04.695Z,31.62
2023-08-11T14:27:10.418Z,30.99
2023-08-11T14:32:25.601Z,31.02
2023-08-11T14:37:32.702Z,31.87
2023-08-11T14:42:38.648Z,32.47
2023-08-11T14:47:44.273Z,32.93
2023-08-11T14:52:49.818Z,32.15
2023-08-11T14:57:55.851Z,32.37
2023-08-11T15:03:01.461Z,32.76
2023-08-11T15:08:08.783Z,32.40
2023-08-11T15:13:17.129Z,32.44
2023-08-11T15:18:31.454Z,32.59
2023-08-11T15:23:37.543Z,32.41
2023-08-11T15:28:43.434Z,32.77
2023-08-11T15:33:49.061Z,32.99
2023-08-11T15:38:54.954Z,33.27
2023-08-11T15:44:00.891Z,33.83
2023-08-11T15:49:07.217Z,34.47
2023-08-11T15:54:12.998Z,34.62
2023-08-11T15:59:18.643Z,34.44
2023-08-11T16:04:24.480Z,34.58
2023-08-11T16:09:30.663Z,34.92
2023-08-11T16:14:36.533Z,35.36
2023-08-11T16:19:42.166Z,35.48
2023-08-11T16:24:48.418Z,35.56
2023-08-11T16:29:54.293Z,36.01
2023-08-11T16:35:00.769Z,37.31
2023-08-11T16:40:10.451Z,37.15
2023-08-11T16:45:16.776Z,37.15
2023-08-11T16:50:23.726Z,36.92
2023-08-11T16:55:29.282Z,36.77
2023-08-11T17:00:36.803Z,37.62
2023-08-11T17:05:42.335Z,37.90
2023-08-11T17:10:47.966Z,37.88
2023-08-11T17:15:53.479Z,38.12
2023-08-11T17:21:00.182Z,38.58
2023-08-11T17:26:07.328Z,37.93
2023-08-11T17:31:13.180Z,38.82
2023-08-11T17:36:20.294Z,39.11
2023-08-11T17:41:26.446Z,40.41
2023-08-11T17:46:32.511Z,40.80
2023-08-11T17:51:38.352Z,41.71
2023-08-11T17:56:44.135Z,43.35
2023-08-11T18:01:49.686Z,44.01
2023-08-11T18:06:55.703Z,44.30
2023-08-11T18:12:01.396Z,45.34
2023-08-11T18:17:07.239Z,46.16
2023-08-11T18:22:13.462Z,47.19
2023-08-11T18:27:19.320Z,48.37
2023-08-11T18:32:25.322Z,49.90
2023-08-11T18:37:31.066Z,51.22
2023-08-11T18:42:37.054Z,52.34
2023-08-11T18:47:42.701Z,54.00
2023-08-11T18:52:49.913Z,55.45
2023-08-11T18:57:55.554Z,57.28
2023-08-11T19:03:01.567Z,58.99
2023-08-11T19:08:09.573Z,60.54
2023-08-11T19:13:15.902Z,61.88
2023-08-11T19:18:21.774Z,63.17
2023-08-11T19:23:27.550Z,64.62
2023-08-11T19:28:34.031Z,65.56
2023-08-11T19:33:39.711Z,66.25
2023-08-11T19:38:45.885Z,66.91
2023-08-11T19:43:51.877Z,67.54
2023-08-11T19:48:58.219Z,68.23
2023-08-11T19:54:04.711Z,68.74
2023-08-11T19:59:11.245Z,69.48
2023-08-11T20:04:20.166Z,70.11
2023-08-11T20:09:29.094Z,70.88
2023-08-11T20:14:36.377Z,71.39
2023-08-11T20:19:42.090Z,71.94
2023-08-11T20:24:47.828Z,72.35
2023-08-11T20:29:53.921Z,72.91
2023-08-11T20:34:59.837Z,73.81
2023-08-11T20:40:08.232Z,74.50
2023-08-11T20:45:14.191Z,75.18
2023-08-11T20:50:19.915Z,76.14
2023-08-11T20:55:26.333Z,76.70
2023-08-11T21:00:32.397Z,77.04
2023-08-11T21:05:42.226Z,77.59
2023-08-11T21:10:49.258Z,77.88
2023-08-11T21:15:55.102Z,78.66
2023-08-11T21:21:02.044Z,79.29
2023-08-11T21:26:07.760Z,80.17
2023-08-11T21:31:18.781Z,81.15
2023-08-11T21:36:25.101Z,81.45
2023-08-11T21:41:37.824Z,82.08
2023-08-11T21:46:43.907Z,82.49
2023-08-11T21:51:49.606Z,82.99
2023-08-11T21:56:55.369Z,83.49
2023-08-11T22:02:01.424Z,83.66
2023-08-11T22:07:07.382Z,84.02
2023-08-11T22:12:13.559Z,84.57
2023-08-11T22:17:19.392Z,85.03
2023-08-11T22:22:25.155Z,85.69
2023-08-11T22:27:31.047Z,86.19
2023-08-11T22:32:37.144Z,86.53
2023-08-11T22:37:42.858Z,86.63
2023-08-11T22:42:48.867Z,86.82
2023-08-11T22:47:54.878Z,87.28
2023-08-11T22:53:00.701Z,87.57
2023-08-11T22:58:06.710Z,88.07
2023-08-11T23:03:12.479Z,88.34
2023-08-11T23:08:18.462Z,88.42
2023-08-11T23:13:24.132Z,88.92
2023-08-11T23:18:29.855Z,89.21
2023-08-11T23:23:35.655Z,89.39
2023-08-11T23:28:42.635Z,89.49
2023-08-11T23:33:48.686Z,89.82
2023-08-11T23:38:54.523Z,89.88
2023-08-11T23:44:00.355Z,90.34
2023-08-11T23:49:06.257Z,90.67
2023-08-11T23:54:11.883Z,91.21
2023-08-11T23:59:17.630Z,91.36
